Thursday, July 24, 2014, 10:44 AM EDT

KOKV, Winchester Regional

Location: Winchester, VA, United States Lat: 39.15
Local Time: 10:44 AM EDT (14:44 GMT) Lon: -78.15
Time Zone: US/Eastern Elev: 728 ft

Show me the last for .
Show Decoded

2014-07-24 09:35 METAR KOKV 241335Z AUTO 34003KT 10SM OVC024 21/17 A2996 RMK AO2 =
2014-07-24 09:15 METAR KOKV 241315Z AUTO 34003KT 10SM OVC026 21/18 A2995 RMK AO2 =
2014-07-24 08:35 METAR KOKV 241235Z AUTO 32003KT 10SM BKN028 BKN039 OVC045 21/17 A2995 RMK AO2 =
2014-07-24 08:15 METAR KOKV 241215Z AUTO 32004KT 10SM OVC045 21/17 A2995 RMK AO2 =
2014-07-24 07:35 METAR KOKV 241135Z AUTO 33003KT 10SM OVC035 21/17 A2994 RMK AO2 =
2014-07-24 07:15 METAR KOKV 241115Z AUTO 33003KT 10SM OVC033 21/17 A2993 RMK AO2 =
2014-07-24 06:55 METAR KOKV 241055Z AUTO 33004KT 10SM OVC031 21/18 A2992 RMK AO2 =
2014-07-24 06:35 METAR KOKV 241035Z AUTO 33003KT 10SM BKN029 21/17 A2992 RMK AO2 =
2014-07-24 06:15 METAR KOKV 241015Z AUTO 33004KT 10SM SCT029 20/18 A2992 RMK AO2 =
2014-07-24 05:55 METAR KOKV 240955Z AUTO 33005KT 10SM SCT022 21/18 A2992 RMK AO2 =
2014-07-24 05:35 METAR KOKV 240935Z AUTO 34004KT 10SM OVC020 21/18 A2991 RMK AO2 =
2014-07-24 05:15 METAR KOKV 240915Z AUTO 35003KT 10SM OVC018 21/19 A2990 RMK AO2 =
2014-07-24 04:35 METAR KOKV 240835Z AUTO 00000KT 10SM SCT020 BKN030 BKN055 21/20 A2991 RMK AO2 =
2014-07-24 04:15 METAR KOKV 240815Z AUTO 00000KT 10SM OVC028 21/20 A2991 RMK AO2 =
2014-07-24 03:55 METAR KOKV 240755Z AUTO 00000KT 7SM -RA BKN026 OVC040 22/20 A2992 RMK AO2 =
2014-07-24 03:35 METAR KOKV 240735Z AUTO 00000KT 7SM -DZ SCT022 SCT040 BKN120 22/20 A2992 RMK AO2
                 =
2014-07-24 03:15 METAR KOKV 240715Z AUTO 00000KT 10SM -DZ SCT120 22/20 A2992 RMK AO2 =
2014-07-24 02:55 METAR KOKV 240655Z AUTO 02003KT 7SM RA SCT043 BKN055 BKN110 22/21 A2991 RMK AO2
                 P0002 =
2014-07-24 02:35 METAR KOKV 240635Z AUTO 00000KT 5SM VCTSRA SCT045 BKN055 OVC110 23/21 A2993 RMK
                 AO2 LTG DSNT S P0001 =
2014-07-24 02:28 METAR KOKV 240628Z AUTO 00000KT 7SM -RA SCT045 BKN055 OVC110 23/21 A2992 RMK AO2
                 =
2014-07-24 02:15 METAR KOKV 240615Z AUTO 00000KT 10SM -RA SCT041 SCT048 BKN100 23/20 A2992 RMK
                 AO2 =
2014-07-24 01:35 METAR KOKV 240535Z AUTO 34004KT 10SM SCT039 SCT050 BKN110 25/19 A2991 RMK AO2 =
2014-07-24 01:15 METAR KOKV 240515Z AUTO 00000KT 10SM SCT039 BKN050 25/20 A2991 RMK AO2 =
2014-07-24 00:55 METAR KOKV 240455Z AUTO 00000KT 10SM SCT033 SCT039 SCT055 23/20 A2991 RMK AO2 =
2014-07-24 00:35 METAR KOKV 240435Z AUTO 00000KT 10SM SCT033 23/20 A2991 RMK AO2 =
2014-07-24 00:15 METAR KOKV 240415Z AUTO 00000KT 10SM CLR 24/20 A2990 RMK AO2 =
2014-07-23 23:55 METAR KOKV 240355Z AUTO 30005KT 10SM SCT048 SCT110 25/19 A2990 RMK AO2 =
2014-07-23 23:35 METAR KOKV 240335Z AUTO 28006KT 10SM CLR 25/19 A2990 RMK AO2 =
2014-07-23 23:15 METAR KOKV 240315Z AUTO 29005KT 10SM CLR 23/20 A2989 RMK AO2 =
2014-07-23 22:55 METAR KOKV 240255Z AUTO 00000KT 10SM SCT110 23/20 A2990 RMK AO2 =
2014-07-23 22:35 METAR KOKV 240235Z AUTO 26003KT 10SM SCT110 25/20 A2990 RMK AO2 LTG DSNT SE =
2014-07-23 22:15 METAR KOKV 240215Z AUTO 26003KT 10SM SCT100 25/20 A2990 RMK AO2 LTG DSNT SE =
2014-07-23 21:55 METAR KOKV 240155Z AUTO 24004KT 10SM SCT100 25/20 A2990 RMK AO2 =
2014-07-23 21:35 METAR KOKV 240135Z AUTO 23004KT 10SM SCT090 26/20 A2991 RMK AO2 LTG DSNT S =
2014-07-23 20:55 METAR KOKV 240055Z AUTO 23003KT 10SM CLR 26/19 A2990 RMK AO2 LTG DSNT SE =
2014-07-23 20:35 METAR KOKV 240035Z AUTO 27007KT 10SM SCT065 SCT090 26/20 A2989 RMK AO2 =
2014-07-23 20:15 METAR KOKV 240015Z AUTO 22005KT 10SM SCT065 SCT080 BKN090 26/20 A2990 RMK AO2
                 LTG DSNT S =
2014-07-23 19:55 METAR KOKV 232355Z AUTO 16004KT 10SM BKN065 BKN075 OVC100 26/20 A2990 RMK AO2
                 LTG DSNT SW =
2014-07-23 19:35 METAR KOKV 232335Z AUTO 13005KT 10SM SCT050 BKN065 OVC075 27/20 A2990 RMK AO2
                 LTG DSNT S =
2014-07-23 19:15 METAR KOKV 232315Z AUTO 00000KT 10SM BKN050 BKN065 27/20 A2989 RMK AO2 LTG DSNT
                 E THRU S =
2014-07-23 18:55 METAR KOKV 232255Z AUTO 22005KT 10SM SCT065 SCT090 27/20 A2988 RMK AO2 LTG DSNT
                 E THRU S =
2014-07-23 18:35 METAR KOKV 232235Z AUTO 27010G15KT 10SM VCTS BKN090 28/19 A2986 RMK AO2 LTG DSNT
                 ALQS =
2014-07-23 18:15 METAR KOKV 232215Z AUTO 26007KT 10SM VCTS SCT040 SCT065 BKN090 28/20 A2985 RMK
                 AO2 LTG DSNT NE THRU S =
2014-07-23 17:55 METAR KOKV 232155Z AUTO 23006KT 10SM -RA SCT047 BKN065 OVC085 27/21 A2984 RMK
                 AO2 LTG DSNT NE SW AND W =
2014-07-23 17:35 METAR KOKV 232135Z AUTO 25016G19KT 10SM SCT060 BKN070 31/20 A2984 RMK AO2 LTG
                 DSNT W THRU NE =
2014-07-23 17:15 METAR KOKV 232115Z AUTO 19005KT 10SM SCT055 31/20 A2983 RMK AO2 LTG DSNT W THRU
                 NE =
2014-07-23 16:55 METAR KOKV 232055Z AUTO 22009G15KT 10SM CLR 32/21 A2984 RMK AO2 LTG DSNT W THRU
                 NE =
2014-07-23 16:35 METAR KOKV 232035Z AUTO 21007G14KT 10SM CLR 33/19 A2986 RMK AO2 LTG DSNT N =
2014-07-23 16:15 METAR KOKV 232015Z AUTO 22009G14KT 10SM SCT050 SCT070 34/18 A2987 RMK AO2 LTG
                 DSNT N =
2014-07-23 15:35 METAR KOKV 231935Z AUTO 20007G14KT 10SM SCT065 33/20 A2988 RMK AO2 =
2014-07-23 15:15 METAR KOKV 231915Z AUTO 18012G15KT 10SM SCT048 SCT050 SCT065 33/21 A2988 RMK AO2
                 =
2014-07-23 14:55 METAR KOKV 231855Z AUTO 21008KT 10SM CLR 33/20 A2988 RMK AO2 =
2014-07-23 14:35 METAR KOKV 231835Z AUTO 23008G15KT 10SM SCT049 33/20 A2990 RMK AO2 =
2014-07-23 14:15 METAR KOKV 231815Z AUTO 22009KT 10SM SCT049 32/20 A2991 RMK AO2 =
2014-07-23 13:55 METAR KOKV 231755Z AUTO 24008KT 10SM SCT046 SCT100 33/20 A2991 RMK AO2 =
2014-07-23 13:35 METAR KOKV 231735Z AUTO 19004KT 10SM SCT100 32/20 A2992 RMK AO2 =
2014-07-23 13:15 METAR KOKV 231715Z AUTO 21004G14KT 10SM CLR 32/21 A2993 RMK AO2 =
2014-07-23 12:55 METAR KOKV 231655Z AUTO 23008KT 200V260 10SM SCT040 32/20 A2994 RMK AO2 =
2014-07-23 12:35 METAR KOKV 231635Z AUTO 20010G14KT 140V210 10SM SCT040 32/20 A2995 RMK AO2 =
2014-07-23 12:15 METAR KOKV 231615Z AUTO 20009KT 150V230 10SM CLR 31/21 A2995 RMK AO2 =
2014-07-23 11:55 METAR KOKV 231555Z AUTO 21007KT 10SM CLR 31/21 A2996 RMK AO2 =
2014-07-23 11:35 METAR KOKV 231535Z AUTO 21007KT 10SM CLR 31/21 A2997 RMK AO2 =
2014-07-23 11:15 METAR KOKV 231515Z AUTO 23005KT 10SM CLR 30/21 A2998 RMK AO2 =
2014-07-23 10:55 METAR KOKV 231455Z AUTO 26004KT 10SM CLR 30/21 A2999 RMK AO2 =

Support USWX by starting your Amazon purchase here.